OROVILLE DAM (ORO)

Elevation: 900' · FEATHER R basin · Operator: CA Dept of Water Resources/O & M

Provisional data, subject to change.
Query executed Sunday at 23:57:46   clock

Select a sensor type for a plot of data.
Note: Reservoir Flows are daily averages.

Earlier

Date RES ELE    STORAGE    RES CHG    TOC STO    ABV TOC    OUTFLOW    INFLOW    EVAP    FNF    PPT INC    RAIN    PPTINC4   
 FEET   AF   AF   AF   AF   CFS   CFS   CFS   CFS   INCHES   INCHES   INCHES  
06/06/2015 734.24 1535023 -5001 3538000 -2002977 3456 1055 76 1280 e 0.16 26.00 0.00
06/07/2015 733.82 1531345 -3678 3538000 -2006655 2926 1060 76 1280 e 0.00 26.00 0.16
06/08/2015 733.40 1527674 -3671 3538000 -2010326 3449 1744 101 1240 e 0.00 26.00 0.00
06/09/2015 732.64 1521046 -6628 3538000 -2016954 3552 357 146 1239 e 0.00 26.00 0.00
06/10/2015 732.14 1516696 -4350 3538000 -2021304 3169 1130 154 1248 e 0.00 26.00 0.00
06/11/2015 731.68 1512688 -4008 3538000 -2025312 2907 958 65 1247 e 0.00 26.00 0.00
06/12/2015 731.20 1508528 -4160 3538000 -2029472 3192 1197 103 1139 e 0.00 26.00 0.00
06/13/2015 730.78 1504894 -3634 3538000 -2033106 3167 1521 100 1392 0.00 26.00 0.00
06/14/2015 730.32 1500920 -3974 3538000 -2037080 3239 1292 100 1274 0.00 26.00 0.00
06/15/2015 729.86 1496954 -3966 3538000 -2041046 3195 1221 112 929 0.00 26.00 0.00
06/16/2015 729.20 1491277 -5677 3538000 -2046723 3892 1160 87 1190 0.00 26.00 0.00
06/17/2015 728.55 1485700 -5577 3538000 -2052300 3901 1157 111 964 0.00 26.00 0.00
06/18/2015 727.89 1480053 -5647 3538000 -2057947 4301 1555 101 988 0.00 26.00 0.00
06/19/2015 727.17 1473908 -6145 3538000 -2064092 4211 1272 116 932 0.00 26.00 0.00
06/20/2015 726.42 1467527 -6381 3538000 -2070473 4209 1055 106 965 e 0.00 26.00 0.00
06/21/2015 725.66 1461080 -6447 3538000 -2076920 4677 1651 96 1049 0.00 26.00 0.00
06/22/2015 724.73 1453218 -7862 3538000 -2084782 4760 820 110 896 e 0.00 26.00 0.00
06/23/2015 723.72 1444713 -8505 3538000 -2093287 4705 477 102 896 e 0.00 26.00 0.00
06/24/2015 723.35 1441606 -3107 3538000 -2096394 2698 1283 109 849 0.00 26.00 0.00
06/25/2015 722.53 1434736 -6870 3538000 -2103264 4829 1467 102 896 e 0.00 26.00 0.00
06/26/2015 721.56 1426639 -8097 3538000 -- 4806 830 106 850 0.00 26.00 0.00
06/27/2015 720.67 1419238 -7401 3538000 -- 4663 1045 113 980 e 0.00 26.00 0.00
06/28/2015 719.82 1412194 -7044 3538000 -- 4622 1142 113 980 e 0.00 26.00 0.00
06/29/2015 718.85 1404184 -8009 3538000 -2133816 5026 1097 67 895 e 0.00 26.00 0.00
06/30/2015 717.78 1395386 -8798 3538000 -2142614 5631 1303 107 894 e 0.00 26.00 0.00
07/01/2015 716.69 1386462 -8925 3538000 -2151538 5345 971 126 579 0.00 26.00 0.00
07/02/2015 715.57 1377334 -9128 3538000 -2160666 5496 1008 114 -- 0.00 26.00 0.00
07/03/2015 714.57 1369218 -8116 3538000 -2168782 5391 1411 111 -- 0.00 26.00 0.00
07/04/2015 713.67 1361942 -7276 3538000 -2176058 4484 927 111 -- 0.00 26.00 0.00
07/05/2015 -- -- -- -- -- -- -- -- -- -- -- 0.00

Later | Latest

Warning! This data is preliminary and subject to revision.

Show ORO Map | Plot ORO Data | 1 Month ORO Data | Real-Time ORO Data | ORO Info